sensor_id;sensor_type;location;lat;lon;timestamp;P1;durP1;ratioP1;P2;durP2;ratioP2
43519;SDS011;46848;51.980;5.918;2022-07-21T00:00:00;8.88;;;6.68;;
43519;SDS011;46848;51.980;5.918;2022-07-21T00:02:31;7.93;;;6.30;;
43519;SDS011;46848;51.980;5.918;2022-07-21T00:04:56;9.23;;;6.93;;
43519;SDS011;46848;51.980;5.918;2022-07-21T00:07:22;8.38;;;6.80;;
43519;SDS011;46848;51.980;5.918;2022-07-21T00:09:48;9.00;;;6.65;;
43519;SDS011;46848;51.980;5.918;2022-07-21T00:12:13;6.43;;;5.65;;
43519;SDS011;46848;51.980;5.918;2022-07-21T00:14:39;9.43;;;6.03;;
43519;SDS011;46848;51.980;5.918;2022-07-21T00:17:05;6.20;;;5.38;;
43519;SDS011;46848;51.980;5.918;2022-07-21T00:19:30;8.38;;;5.47;;
43519;SDS011;46848;51.980;5.918;2022-07-21T00:21:56;7.43;;;6.20;;
43519;SDS011;46848;51.980;5.918;2022-07-21T00:24:21;7.28;;;5.40;;
43519;SDS011;46848;51.980;5.918;2022-07-21T00:26:47;8.15;;;6.15;;
43519;SDS011;46848;51.980;5.918;2022-07-21T00:29:13;10.93;;;6.90;;
43519;SDS011;46848;51.980;5.918;2022-07-21T00:31:38;9.05;;;7.22;;
43519;SDS011;46848;51.980;5.918;2022-07-21T00:34:04;9.23;;;7.18;;
43519;SDS011;46848;51.980;5.918;2022-07-21T00:36:30;8.85;;;7.15;;
43519;SDS011;46848;51.980;5.918;2022-07-21T00:38:55;8.63;;;7.55;;
43519;SDS011;46848;51.980;5.918;2022-07-21T00:41:21;10.30;;;7.90;;
43519;SDS011;46848;51.980;5.918;2022-07-21T00:43:47;9.43;;;7.60;;
43519;SDS011;46848;51.980;5.918;2022-07-21T00:46:12;9.18;;;7.57;;
43519;SDS011;46848;51.980;5.918;2022-07-21T00:48:38;9.68;;;7.63;;
43519;SDS011;46848;51.980;5.918;2022-07-21T00:51:04;10.82;;;8.45;;
43519;SDS011;46848;51.980;5.918;2022-07-21T00:53:29;9.52;;;7.72;;
43519;SDS011;46848;51.980;5.918;2022-07-21T00:55:55;9.10;;;7.80;;
43519;SDS011;46848;51.980;5.918;2022-07-21T00:58:22;11.85;;;8.48;;
43519;SDS011;46848;51.980;5.918;2022-07-21T01:00:49;11.88;;;9.82;;
43519;SDS011;46848;51.980;5.918;2022-07-21T01:03:14;10.27;;;8.07;;
43519;SDS011;46848;51.980;5.918;2022-07-21T01:05:40;11.77;;;9.07;;
43519;SDS011;46848;51.980;5.918;2022-07-21T01:08:06;11.65;;;8.48;;
43519;SDS011;46848;51.980;5.918;2022-07-21T01:10:31;10.18;;;7.85;;
43519;SDS011;46848;51.980;5.918;2022-07-21T01:12:58;10.25;;;8.88;;
43519;SDS011;46848;51.980;5.918;2022-07-21T01:15:24;10.25;;;8.70;;
43519;SDS011;46848;51.980;5.918;2022-07-21T01:17:50;9.57;;;7.82;;
43519;SDS011;46848;51.980;5.918;2022-07-21T01:20:19;10.52;;;7.57;;
43519;SDS011;46848;51.980;5.918;2022-07-21T01:22:48;10.63;;;8.90;;
43519;SDS011;46848;51.980;5.918;2022-07-21T01:25:17;9.05;;;8.00;;
43519;SDS011;46848;51.980;5.918;2022-07-21T01:27:44;10.02;;;8.30;;
43519;SDS011;46848;51.980;5.918;2022-07-21T01:30:10;11.05;;;8.50;;
43519;SDS011;46848;51.980;5.918;2022-07-21T01:32:36;9.98;;;8.07;;
43519;SDS011;46848;51.980;5.918;2022-07-21T01:35:04;8.00;;;7.03;;
43519;SDS011;46848;51.980;5.918;2022-07-21T01:37:31;11.73;;;8.07;;
43519;SDS011;46848;51.980;5.918;2022-07-21T01:40:01;10.95;;;8.27;;
43519;SDS011;46848;51.980;5.918;2022-07-21T01:42:45;10.52;;;8.55;;
43519;SDS011;46848;51.980;5.918;2022-07-21T01:45:11;10.73;;;8.25;;
43519;SDS011;46848;51.980;5.918;2022-07-21T01:47:36;10.18;;;8.43;;
43519;SDS011;46848;51.980;5.918;2022-07-21T01:50:02;9.80;;;7.95;;
43519;SDS011;46848;51.980;5.918;2022-07-21T01:52:28;14.93;;;8.63;;
43519;SDS011;46848;51.980;5.918;2022-07-21T01:54:54;9.43;;;8.43;;
43519;SDS011;46848;51.980;5.918;2022-07-21T01:57:20;9.77;;;8.77;;
43519;SDS011;46848;51.980;5.918;2022-07-21T01:59:45;10.85;;;8.68;;
43519;SDS011;46848;51.980;5.918;2022-07-21T02:02:12;11.70;;;8.80;;
43519;SDS011;46848;51.980;5.918;2022-07-21T02:04:37;11.18;;;9.68;;
43519;SDS011;46848;51.980;5.918;2022-07-21T02:07:03;13.45;;;10.52;;
43519;SDS011;46848;51.980;5.918;2022-07-21T02:09:28;13.23;;;10.13;;
43519;SDS011;46848;51.980;5.918;2022-07-21T02:11:54;12.82;;;10.02;;
43519;SDS011;46848;51.980;5.918;2022-07-21T02:14:20;13.73;;;11.73;;
43519;SDS011;46848;51.980;5.918;2022-07-21T02:16:46;13.05;;;11.43;;
43519;SDS011;46848;51.980;5.918;2022-07-21T02:19:11;11.23;;;10.02;;
43519;SDS011;46848;51.980;5.918;2022-07-21T02:21:37;12.43;;;9.70;;
43519;SDS011;46848;51.980;5.918;2022-07-21T02:24:03;12.90;;;9.77;;
43519;SDS011;46848;51.980;5.918;2022-07-21T02:26:29;11.35;;;9.82;;
43519;SDS011;46848;51.980;5.918;2022-07-21T02:28:55;10.45;;;9.35;;
43519;SDS011;46848;51.980;5.918;2022-07-21T02:31:21;11.43;;;9.63;;
43519;SDS011;46848;51.980;5.918;2022-07-21T02:33:46;12.15;;;10.30;;
43519;SDS011;46848;51.980;5.918;2022-07-21T02:36:12;13.38;;;11.10;;
43519;SDS011;46848;51.980;5.918;2022-07-21T02:38:38;13.13;;;10.65;;
43519;SDS011;46848;51.980;5.918;2022-07-21T02:41:04;13.48;;;11.65;;
43519;SDS011;46848;51.980;5.918;2022-07-21T02:43:29;15.45;;;11.85;;
43519;SDS011;46848;51.980;5.918;2022-07-21T02:45:55;12.82;;;10.35;;
43519;SDS011;46848;51.980;5.918;2022-07-21T02:48:21;11.60;;;10.43;;
43519;SDS011;46848;51.980;5.918;2022-07-21T02:50:46;12.05;;;10.65;;
43519;SDS011;46848;51.980;5.918;2022-07-21T02:53:13;13.63;;;11.10;;
43519;SDS011;46848;51.980;5.918;2022-07-21T02:55:43;12.52;;;10.70;;
43519;SDS011;46848;51.980;5.918;2022-07-21T03:00:43;12.18;;;10.30;;
43519;SDS011;46848;51.980;5.918;2022-07-21T03:03:13;13.77;;;10.17;;
43519;SDS011;46848;51.980;5.918;2022-07-21T03:05:39;12.27;;;9.90;;
43519;SDS011;46848;51.980;5.918;2022-07-21T03:08:05;11.70;;;10.48;;
43519;SDS011;46848;51.980;5.918;2022-07-21T03:10:32;11.52;;;10.32;;
43519;SDS011;46848;51.980;5.918;2022-07-21T03:12:58;11.77;;;10.57;;
43519;SDS011;46848;51.980;5.918;2022-07-21T03:15:24;13.00;;;11.65;;
43519;SDS011;46848;51.980;5.918;2022-07-21T03:17:51;14.75;;;13.10;;
43519;SDS011;46848;51.980;5.918;2022-07-21T03:20:17;13.43;;;12.02;;
43519;SDS011;46848;51.980;5.918;2022-07-21T03:22:43;12.63;;;11.00;;
43519;SDS011;46848;51.980;5.918;2022-07-21T03:25:09;13.25;;;11.85;;
43519;SDS011;46848;51.980;5.918;2022-07-21T03:27:35;12.98;;;11.52;;
43519;SDS011;46848;51.980;5.918;2022-07-21T03:30:05;13.40;;;11.68;;
43519;SDS011;46848;51.980;5.918;2022-07-21T03:32:32;13.55;;;12.15;;
43519;SDS011;46848;51.980;5.918;2022-07-21T03:34:58;14.27;;;12.07;;
43519;SDS011;46848;51.980;5.918;2022-07-21T03:37:24;13.20;;;10.80;;
43519;SDS011;46848;51.980;5.918;2022-07-21T03:39:50;13.10;;;11.07;;
43519;SDS011;46848;51.980;5.918;2022-07-21T03:42:16;11.93;;;10.73;;
43519;SDS011;46848;51.980;5.918;2022-07-21T03:44:42;12.93;;;11.48;;
43519;SDS011;46848;51.980;5.918;2022-07-21T03:47:07;12.57;;;10.88;;
43519;SDS011;46848;51.980;5.918;2022-07-21T03:49:33;12.35;;;10.55;;
43519;SDS011;46848;51.980;5.918;2022-07-21T03:51:59;12.13;;;10.82;;
43519;SDS011;46848;51.980;5.918;2022-07-21T03:54:24;12.82;;;10.98;;
43519;SDS011;46848;51.980;5.918;2022-07-21T03:56:50;13.55;;;11.20;;
43519;SDS011;46848;51.980;5.918;2022-07-21T03:59:16;13.18;;;11.25;;
43519;SDS011;46848;51.980;5.918;2022-07-21T04:01:42;14.85;;;12.55;;
43519;SDS011;46848;51.980;5.918;2022-07-21T04:04:08;14.30;;;11.55;;
43519;SDS011;46848;51.980;5.918;2022-07-21T04:06:34;13.48;;;12.05;;
43519;SDS011;46848;51.980;5.918;2022-07-21T04:08:59;16.00;;;13.23;;
43519;SDS011;46848;51.980;5.918;2022-07-21T04:11:25;13.63;;;11.95;;
43519;SDS011;46848;51.980;5.918;2022-07-21T04:13:50;15.45;;;12.15;;
43519;SDS011;46848;51.980;5.918;2022-07-21T04:16:16;12.40;;;11.10;;
43519;SDS011;46848;51.980;5.918;2022-07-21T04:18:42;15.20;;;13.00;;
43519;SDS011;46848;51.980;5.918;2022-07-21T04:21:07;17.20;;;13.98;;
43519;SDS011;46848;51.980;5.918;2022-07-21T04:23:33;17.70;;;13.70;;
43519;SDS011;46848;51.980;5.918;2022-07-21T04:25:58;16.95;;;14.82;;
43519;SDS011;46848;51.980;5.918;2022-07-21T04:28:24;16.15;;;14.43;;
43519;SDS011;46848;51.980;5.918;2022-07-21T04:30:50;17.33;;;14.68;;
43519;SDS011;46848;51.980;5.918;2022-07-21T04:33:15;16.15;;;14.43;;
43519;SDS011;46848;51.980;5.918;2022-07-21T04:35:41;16.48;;;13.82;;
43519;SDS011;46848;51.980;5.918;2022-07-21T04:38:08;14.40;;;12.88;;
43519;SDS011;46848;51.980;5.918;2022-07-21T04:40:35;15.02;;;13.00;;
43519;SDS011;46848;51.980;5.918;2022-07-21T04:43:00;17.85;;;14.77;;
43519;SDS011;46848;51.980;5.918;2022-07-21T04:45:26;16.48;;;13.68;;
43519;SDS011;46848;51.980;5.918;2022-07-21T04:47:52;15.45;;;12.95;;
43519;SDS011;46848;51.980;5.918;2022-07-21T04:50:20;14.77;;;12.48;;
43519;SDS011;46848;51.980;5.918;2022-07-21T04:52:47;18.08;;;14.48;;
43519;SDS011;46848;51.980;5.918;2022-07-21T04:55:14;18.25;;;16.25;;
43519;SDS011;46848;51.980;5.918;2022-07-21T04:57:41;17.50;;;15.20;;
43519;SDS011;46848;51.980;5.918;2022-07-21T05:00:10;21.30;;;16.15;;
43519;SDS011;46848;51.980;5.918;2022-07-21T05:02:38;21.10;;;18.67;;
43519;SDS011;46848;51.980;5.918;2022-07-21T05:05:04;19.80;;;16.65;;
43519;SDS011;46848;51.980;5.918;2022-07-21T05:07:31;18.75;;;15.73;;
43519;SDS011;46848;51.980;5.918;2022-07-21T05:09:57;20.70;;;16.00;;
43519;SDS011;46848;51.980;5.918;2022-07-21T05:12:24;23.98;;;18.80;;
43519;SDS011;46848;51.980;5.918;2022-07-21T05:14:50;20.25;;;17.25;;
43519;SDS011;46848;51.980;5.918;2022-07-21T05:17:16;23.92;;;19.35;;
43519;SDS011;46848;51.980;5.918;2022-07-21T05:19:41;24.55;;;19.00;;
43519;SDS011;46848;51.980;5.918;2022-07-21T05:22:08;19.90;;;17.58;;
43519;SDS011;46848;51.980;5.918;2022-07-21T05:24:34;24.25;;;18.02;;
43519;SDS011;46848;51.980;5.918;2022-07-21T05:27:00;20.75;;;18.50;;
43519;SDS011;46848;51.980;5.918;2022-07-21T05:29:25;21.77;;;19.50;;
43519;SDS011;46848;51.980;5.918;2022-07-21T05:31:51;33.33;;;23.38;;
43519;SDS011;46848;51.980;5.918;2022-07-21T05:34:16;28.17;;;21.90;;
43519;SDS011;46848;51.980;5.918;2022-07-21T05:36:42;27.52;;;23.05;;
43519;SDS011;46848;51.980;5.918;2022-07-21T05:39:08;27.15;;;20.48;;
43519;SDS011;46848;51.980;5.918;2022-07-21T05:41:33;30.50;;;24.70;;
43519;SDS011;46848;51.980;5.918;2022-07-21T05:43:59;31.10;;;26.80;;
43519;SDS011;46848;51.980;5.918;2022-07-21T05:46:24;26.98;;;23.23;;
43519;SDS011;46848;51.980;5.918;2022-07-21T05:48:50;30.25;;;24.02;;
43519;SDS011;46848;51.980;5.918;2022-07-21T05:51:19;28.13;;;23.95;;
43519;SDS011;46848;51.980;5.918;2022-07-21T05:53:44;28.20;;;24.60;;
43519;SDS011;46848;51.980;5.918;2022-07-21T05:56:10;34.08;;;28.27;;
43519;SDS011;46848;51.980;5.918;2022-07-21T05:58:36;29.10;;;24.65;;
43519;SDS011;46848;51.980;5.918;2022-07-21T06:01:01;29.42;;;23.25;;
43519;SDS011;46848;51.980;5.918;2022-07-21T06:03:33;33.42;;;29.55;;
43519;SDS011;46848;51.980;5.918;2022-07-21T06:06:03;33.58;;;25.75;;
43519;SDS011;46848;51.980;5.918;2022-07-21T06:08:29;28.67;;;24.77;;
43519;SDS011;46848;51.980;5.918;2022-07-21T06:10:55;29.80;;;25.63;;
43519;SDS011;46848;51.980;5.918;2022-07-21T06:13:20;38.78;;;30.08;;
43519;SDS011;46848;51.980;5.918;2022-07-21T06:15:46;30.60;;;25.00;;
43519;SDS011;46848;51.980;5.918;2022-07-21T06:18:12;32.50;;;24.95;;
43519;SDS011;46848;51.980;5.918;2022-07-21T06:20:38;29.77;;;23.65;;
43519;SDS011;46848;51.980;5.918;2022-07-21T06:23:04;33.28;;;25.67;;
43519;SDS011;46848;51.980;5.918;2022-07-21T06:25:30;30.13;;;22.25;;
43519;SDS011;46848;51.980;5.918;2022-07-21T06:27:56;31.30;;;24.75;;
43519;SDS011;46848;51.980;5.918;2022-07-21T06:30:21;25.60;;;22.08;;
43519;SDS011;46848;51.980;5.918;2022-07-21T06:32:47;31.48;;;24.38;;
43519;SDS011;46848;51.980;5.918;2022-07-21T06:35:13;31.58;;;24.25;;
43519;SDS011;46848;51.980;5.918;2022-07-21T06:37:38;31.00;;;24.30;;
43519;SDS011;46848;51.980;5.918;2022-07-21T06:40:08;35.70;;;24.63;;
43519;SDS011;46848;51.980;5.918;2022-07-21T06:42:34;34.15;;;26.35;;
43519;SDS011;46848;51.980;5.918;2022-07-21T06:45:00;31.15;;;21.98;;
43519;SDS011;46848;51.980;5.918;2022-07-21T06:47:25;28.58;;;23.60;;
43519;SDS011;46848;51.980;5.918;2022-07-21T06:49:51;29.17;;;23.95;;
43519;SDS011;46848;51.980;5.918;2022-07-21T06:52:17;27.90;;;22.77;;
43519;SDS011;46848;51.980;5.918;2022-07-21T06:54:42;24.05;;;20.67;;
43519;SDS011;46848;51.980;5.918;2022-07-21T06:57:08;28.30;;;20.90;;
43519;SDS011;46848;51.980;5.918;2022-07-21T06:59:34;23.30;;;19.77;;
43519;SDS011;46848;51.980;5.918;2022-07-21T07:01:59;25.13;;;21.60;;
43519;SDS011;46848;51.980;5.918;2022-07-21T07:04:25;25.45;;;21.38;;
43519;SDS011;46848;51.980;5.918;2022-07-21T07:06:51;26.63;;;22.95;;
43519;SDS011;46848;51.980;5.918;2022-07-21T07:09:18;28.08;;;23.13;;
43519;SDS011;46848;51.980;5.918;2022-07-21T07:11:44;27.73;;;22.70;;
43519;SDS011;46848;51.980;5.918;2022-07-21T07:14:12;29.38;;;25.52;;
43519;SDS011;46848;51.980;5.918;2022-07-21T07:16:38;28.67;;;24.50;;
43519;SDS011;46848;51.980;5.918;2022-07-21T07:19:04;34.47;;;25.08;;
43519;SDS011;46848;51.980;5.918;2022-07-21T07:21:30;30.20;;;23.60;;
43519;SDS011;46848;51.980;5.918;2022-07-21T07:23:56;29.83;;;24.42;;
43519;SDS011;46848;51.980;5.918;2022-07-21T07:26:21;27.70;;;23.73;;
43519;SDS011;46848;51.980;5.918;2022-07-21T07:28:47;30.52;;;24.65;;
43519;SDS011;46848;51.980;5.918;2022-07-21T07:31:13;25.40;;;21.85;;
43519;SDS011;46848;51.980;5.918;2022-07-21T07:33:38;20.45;;;18.35;;
43519;SDS011;46848;51.980;5.918;2022-07-21T07:36:04;26.15;;;19.52;;
43519;SDS011;46848;51.980;5.918;2022-07-21T07:38:30;25.08;;;19.40;;
43519;SDS011;46848;51.980;5.918;2022-07-21T07:40:55;25.73;;;20.83;;
43519;SDS011;46848;51.980;5.918;2022-07-21T07:43:21;25.10;;;18.15;;
43519;SDS011;46848;51.980;5.918;2022-07-21T07:45:47;24.52;;;18.33;;
43519;SDS011;46848;51.980;5.918;2022-07-21T07:48:12;30.25;;;20.75;;
43519;SDS011;46848;51.980;5.918;2022-07-21T07:50:38;26.55;;;19.98;;
43519;SDS011;46848;51.980;5.918;2022-07-21T07:53:04;24.10;;;17.52;;
43519;SDS011;46848;51.980;5.918;2022-07-21T07:55:30;21.95;;;18.08;;
43519;SDS011;46848;51.980;5.918;2022-07-21T07:57:55;22.98;;;18.30;;
43519;SDS011;46848;51.980;5.918;2022-07-21T08:00:21;27.25;;;19.95;;
43519;SDS011;46848;51.980;5.918;2022-07-21T08:02:46;27.20;;;19.08;;
43519;SDS011;46848;51.980;5.918;2022-07-21T08:05:12;26.90;;;20.70;;
43519;SDS011;46848;51.980;5.918;2022-07-21T08:07:38;25.92;;;20.33;;
43519;SDS011;46848;51.980;5.918;2022-07-21T08:10:06;30.35;;;21.80;;
43519;SDS011;46848;51.980;5.918;2022-07-21T08:12:35;22.38;;;19.65;;
43519;SDS011;46848;51.980;5.918;2022-07-21T08:15:02;27.23;;;20.67;;
43519;SDS011;46848;51.980;5.918;2022-07-21T08:17:28;29.83;;;21.27;;
43519;SDS011;46848;51.980;5.918;2022-07-21T08:19:54;32.55;;;24.15;;
43519;SDS011;46848;51.980;5.918;2022-07-21T08:22:20;27.60;;;22.45;;
43519;SDS011;46848;51.980;5.918;2022-07-21T08:24:45;26.08;;;18.90;;
43519;SDS011;46848;51.980;5.918;2022-07-21T08:27:11;26.65;;;20.40;;
43519;SDS011;46848;51.980;5.918;2022-07-21T08:29:37;28.05;;;21.15;;
43519;SDS011;46848;51.980;5.918;2022-07-21T08:32:02;23.40;;;19.27;;
43519;SDS011;46848;51.980;5.918;2022-07-21T08:34:28;25.85;;;19.52;;
43519;SDS011;46848;51.980;5.918;2022-07-21T08:36:54;23.23;;;17.50;;
43519;SDS011;46848;51.980;5.918;2022-07-21T08:39:20;27.20;;;20.88;;
43519;SDS011;46848;51.980;5.918;2022-07-21T08:41:45;25.60;;;18.52;;
43519;SDS011;46848;51.980;5.918;2022-07-21T08:44:12;27.40;;;19.75;;
43519;SDS011;46848;51.980;5.918;2022-07-21T08:46:40;25.30;;;20.70;;
43519;SDS011;46848;51.980;5.918;2022-07-21T08:49:07;29.10;;;21.40;;
43519;SDS011;46848;51.980;5.918;2022-07-21T08:51:35;31.55;;;23.40;;
43519;SDS011;46848;51.980;5.918;2022-07-21T08:54:02;34.67;;;24.27;;
43519;SDS011;46848;51.980;5.918;2022-07-21T08:56:28;27.88;;;20.63;;
43519;SDS011;46848;51.980;5.918;2022-07-21T08:58:54;29.50;;;21.02;;
43519;SDS011;46848;51.980;5.918;2022-07-21T09:01:20;31.45;;;21.88;;
43519;SDS011;46848;51.980;5.918;2022-07-21T09:03:49;35.85;;;23.48;;
43519;SDS011;46848;51.980;5.918;2022-07-21T09:06:18;34.47;;;22.48;;
43519;SDS011;46848;51.980;5.918;2022-07-21T09:08:49;32.28;;;21.98;;
43519;SDS011;46848;51.980;5.918;2022-07-21T09:14:06;28.23;;;21.55;;
43519;SDS011;46848;51.980;5.918;2022-07-21T09:19:02;25.60;;;20.23;;
43519;SDS011;46848;51.980;5.918;2022-07-21T09:21:29;27.10;;;18.85;;
43519;SDS011;46848;51.980;5.918;2022-07-21T09:29:58;17.75;;;12.48;;
43519;SDS011;46848;51.980;5.918;2022-07-21T09:32:27;18.13;;;11.55;;
43519;SDS011;46848;51.980;5.918;2022-07-21T09:37:28;13.07;;;9.55;;
43519;SDS011;46848;51.980;5.918;2022-07-21T09:39:56;15.20;;;11.43;;
43519;SDS011;46848;51.980;5.918;2022-07-21T09:42:26;13.43;;;9.20;;
43519;SDS011;46848;51.980;5.918;2022-07-21T09:47:24;12.70;;;8.88;;
43519;SDS011;46848;51.980;5.918;2022-07-21T09:49:50;12.82;;;8.80;;
43519;SDS011;46848;51.980;5.918;2022-07-21T09:52:30;11.45;;;8.30;;
43519;SDS011;46848;51.980;5.918;2022-07-21T09:54:59;10.32;;;8.75;;
43519;SDS011;46848;51.980;5.918;2022-07-21T09:57:27;12.40;;;9.65;;
43519;SDS011;46848;51.980;5.918;2022-07-21T09:59:53;13.48;;;9.52;;
43519;SDS011;46848;51.980;5.918;2022-07-21T10:02:21;11.77;;;8.77;;
43519;SDS011;46848;51.980;5.918;2022-07-21T10:07:30;18.08;;;8.88;;
43519;SDS011;46848;51.980;5.918;2022-07-21T10:09:57;11.20;;;7.80;;
43519;SDS011;46848;51.980;5.918;2022-07-21T10:12:23;11.85;;;7.65;;
43519;SDS011;46848;51.980;5.918;2022-07-21T10:14:51;7.60;;;6.50;;
43519;SDS011;46848;51.980;5.918;2022-07-21T10:17:18;11.88;;;6.22;;
43519;SDS011;46848;51.980;5.918;2022-07-21T10:25:00;8.85;;;6.18;;
43519;SDS011;46848;51.980;5.918;2022-07-21T10:27:26;9.68;;;6.00;;
43519;SDS011;46848;51.980;5.918;2022-07-21T10:29:59;9.25;;;5.07;;
43519;SDS011;46848;51.980;5.918;2022-07-21T10:32:36;8.63;;;6.20;;
43519;SDS011;46848;51.980;5.918;2022-07-21T10:35:25;7.15;;;5.85;;
43519;SDS011;46848;51.980;5.918;2022-07-21T10:37:56;7.07;;;5.78;;
43519;SDS011;46848;51.980;5.918;2022-07-21T10:45:33;9.05;;;6.32;;
43519;SDS011;46848;51.980;5.918;2022-07-21T10:48:02;8.68;;;6.45;;
43519;SDS011;46848;51.980;5.918;2022-07-21T10:50:37;6.88;;;5.85;;
43519;SDS011;46848;51.980;5.918;2022-07-21T10:53:05;6.93;;;5.68;;
43519;SDS011;46848;51.980;5.918;2022-07-21T10:55:37;7.38;;;6.57;;
43519;SDS011;46848;51.980;5.918;2022-07-21T11:00:39;12.45;;;7.70;;
43519;SDS011;46848;51.980;5.918;2022-07-21T11:03:19;8.93;;;6.22;;
43519;SDS011;46848;51.980;5.918;2022-07-21T11:08:35;6.50;;;4.90;;
43519;SDS011;46848;51.980;5.918;2022-07-21T11:11:15;4.93;;;4.43;;
43519;SDS011;46848;51.980;5.918;2022-07-21T11:14:05;4.53;;;3.50;;
43519;SDS011;46848;51.980;5.918;2022-07-21T11:21:54;3.70;;;2.78;;
43519;SDS011;46848;51.980;5.918;2022-07-21T11:24:20;4.35;;;2.85;;
43519;SDS011;46848;51.980;5.918;2022-07-21T11:26:57;4.18;;;2.83;;
43519;SDS011;46848;51.980;5.918;2022-07-21T11:29:32;3.55;;;2.63;;
43519;SDS011;46848;51.980;5.918;2022-07-21T11:31:59;3.65;;;2.78;;
43519;SDS011;46848;51.980;5.918;2022-07-21T11:34:36;4.07;;;2.88;;
43519;SDS011;46848;51.980;5.918;2022-07-21T11:37:07;4.57;;;3.05;;
43519;SDS011;46848;51.980;5.918;2022-07-21T11:39:33;4.40;;;3.78;;
43519;SDS011;46848;51.980;5.918;2022-07-21T11:42:03;6.13;;;3.40;;
43519;SDS011;46848;51.980;5.918;2022-07-21T11:44:34;4.22;;;2.90;;
43519;SDS011;46848;51.980;5.918;2022-07-21T11:47:01;5.10;;;3.53;;
43519;SDS011;46848;51.980;5.918;2022-07-21T11:49:28;4.43;;;3.63;;
43519;SDS011;46848;51.980;5.918;2022-07-21T11:52:01;5.07;;;3.85;;
43519;SDS011;46848;51.980;5.918;2022-07-21T11:54:45;5.05;;;3.78;;
43519;SDS011;46848;51.980;5.918;2022-07-21T11:57:11;6.20;;;4.15;;
43519;SDS011;46848;51.980;5.918;2022-07-21T11:59:38;6.20;;;4.28;;
43519;SDS011;46848;51.980;5.918;2022-07-21T12:09:39;6.22;;;5.03;;
43519;SDS011;46848;51.980;5.918;2022-07-21T12:12:07;7.13;;;5.55;;
43519;SDS011;46848;51.980;5.918;2022-07-21T12:17:04;7.38;;;6.55;;
43519;SDS011;46848;51.980;5.918;2022-07-21T12:19:30;9.43;;;6.35;;
43519;SDS011;46848;51.980;5.918;2022-07-21T12:21:56;7.47;;;5.30;;
43519;SDS011;46848;51.980;5.918;2022-07-21T12:24:21;7.03;;;4.85;;
43519;SDS011;46848;51.980;5.918;2022-07-21T12:27:11;6.13;;;5.38;;
43519;SDS011;46848;51.980;5.918;2022-07-21T12:29:37;6.57;;;5.53;;
43519;SDS011;46848;51.980;5.918;2022-07-21T12:32:03;7.22;;;5.45;;
43519;SDS011;46848;51.980;5.918;2022-07-21T12:34:28;8.88;;;5.45;;
43519;SDS011;46848;51.980;5.918;2022-07-21T12:36:54;6.75;;;5.30;;
43519;SDS011;46848;51.980;5.918;2022-07-21T12:39:22;6.32;;;5.10;;
43519;SDS011;46848;51.980;5.918;2022-07-21T12:42:09;6.05;;;4.53;;
43519;SDS011;46848;51.980;5.918;2022-07-21T12:44:36;5.88;;;4.47;;
43519;SDS011;46848;51.980;5.918;2022-07-21T12:47:12;6.05;;;4.88;;
43519;SDS011;46848;51.980;5.918;2022-07-21T12:52:24;5.72;;;4.45;;
43519;SDS011;46848;51.980;5.918;2022-07-21T12:54:51;6.10;;;4.55;;
43519;SDS011;46848;51.980;5.918;2022-07-21T12:57:17;6.15;;;4.70;;
43519;SDS011;46848;51.980;5.918;2022-07-21T12:59:43;5.82;;;4.32;;
43519;SDS011;46848;51.980;5.918;2022-07-21T13:02:09;6.80;;;4.80;;
43519;SDS011;46848;51.980;5.918;2022-07-21T13:04:34;5.55;;;4.28;;
43519;SDS011;46848;51.980;5.918;2022-07-21T13:07:00;5.32;;;3.88;;
43519;SDS011;46848;51.980;5.918;2022-07-21T13:09:26;5.75;;;4.30;;
43519;SDS011;46848;51.980;5.918;2022-07-21T13:11:52;6.32;;;3.90;;
43519;SDS011;46848;51.980;5.918;2022-07-21T13:14:18;4.88;;;3.60;;
43519;SDS011;46848;51.980;5.918;2022-07-21T13:16:43;6.55;;;4.13;;
43519;SDS011;46848;51.980;5.918;2022-07-21T13:19:09;6.60;;;4.53;;
43519;SDS011;46848;51.980;5.918;2022-07-21T13:21:35;6.47;;;5.78;;
43519;SDS011;46848;51.980;5.918;2022-07-21T13:24:01;5.68;;;4.70;;
43519;SDS011;46848;51.980;5.918;2022-07-21T13:26:27;8.43;;;5.25;;
43519;SDS011;46848;51.980;5.918;2022-07-21T13:28:53;8.10;;;4.93;;
43519;SDS011;46848;51.980;5.918;2022-07-21T13:31:19;6.32;;;4.82;;
43519;SDS011;46848;51.980;5.918;2022-07-21T13:33:46;7.25;;;5.03;;
43519;SDS011;46848;51.980;5.918;2022-07-21T13:36:12;8.57;;;5.45;;
43519;SDS011;46848;51.980;5.918;2022-07-21T13:38:38;7.47;;;6.30;;
43519;SDS011;46848;51.980;5.918;2022-07-21T13:41:04;7.50;;;5.97;;
43519;SDS011;46848;51.980;5.918;2022-07-21T13:43:30;6.38;;;5.30;;
43519;SDS011;46848;51.980;5.918;2022-07-21T13:45:56;8.23;;;5.60;;
43519;SDS011;46848;51.980;5.918;2022-07-21T13:48:22;6.53;;;5.22;;
43519;SDS011;46848;51.980;5.918;2022-07-21T13:50:48;7.40;;;4.80;;
43519;SDS011;46848;51.980;5.918;2022-07-21T13:53:14;5.40;;;4.60;;
43519;SDS011;46848;51.980;5.918;2022-07-21T13:55:39;4.85;;;3.70;;
43519;SDS011;46848;51.980;5.918;2022-07-21T13:58:05;4.38;;;3.55;;
43519;SDS011;46848;51.980;5.918;2022-07-21T14:00:33;5.35;;;3.53;;
43519;SDS011;46848;51.980;5.918;2022-07-21T14:02:59;4.50;;;3.50;;
43519;SDS011;46848;51.980;5.918;2022-07-21T14:05:24;3.97;;;3.15;;
43519;SDS011;46848;51.980;5.918;2022-07-21T14:07:50;6.10;;;3.72;;
43519;SDS011;46848;51.980;5.918;2022-07-21T14:10:16;5.20;;;3.60;;
43519;SDS011;46848;51.980;5.918;2022-07-21T14:12:41;4.68;;;3.05;;
43519;SDS011;46848;51.980;5.918;2022-07-21T14:15:07;3.40;;;2.63;;
43519;SDS011;46848;51.980;5.918;2022-07-21T14:17:33;3.33;;;2.83;;
43519;SDS011;46848;51.980;5.918;2022-07-21T14:19:59;4.20;;;2.30;;
43519;SDS011;46848;51.980;5.918;2022-07-21T14:22:24;5.18;;;2.28;;
43519;SDS011;46848;51.980;5.918;2022-07-21T14:24:50;3.05;;;2.05;;
43519;SDS011;46848;51.980;5.918;2022-07-21T14:27:34;3.40;;;2.25;;
43519;SDS011;46848;51.980;5.918;2022-07-21T14:30:00;4.65;;;2.38;;
43519;SDS011;46848;51.980;5.918;2022-07-21T14:32:26;3.22;;;1.95;;
43519;SDS011;46848;51.980;5.918;2022-07-21T14:34:52;3.65;;;2.50;;
43519;SDS011;46848;51.980;5.918;2022-07-21T14:37:18;3.85;;;2.70;;
43519;SDS011;46848;51.980;5.918;2022-07-21T14:39:47;4.13;;;2.42;;
43519;SDS011;46848;51.980;5.918;2022-07-21T14:42:14;3.75;;;2.40;;
43519;SDS011;46848;51.980;5.918;2022-07-21T14:44:40;3.75;;;2.17;;
43519;SDS011;46848;51.980;5.918;2022-07-21T14:47:06;3.10;;;1.92;;
43519;SDS011;46848;51.980;5.918;2022-07-21T14:49:33;2.83;;;1.80;;
43519;SDS011;46848;51.980;5.918;2022-07-21T14:51:59;4.35;;;1.85;;
43519;SDS011;46848;51.980;5.918;2022-07-21T14:54:25;3.63;;;2.15;;
43519;SDS011;46848;51.980;5.918;2022-07-21T14:56:51;2.78;;;1.92;;
43519;SDS011;46848;51.980;5.918;2022-07-21T14:59:16;3.03;;;1.95;;
43519;SDS011;46848;51.980;5.918;2022-07-21T15:01:42;3.13;;;1.70;;
43519;SDS011;46848;51.980;5.918;2022-07-21T15:04:08;4.18;;;1.63;;
43519;SDS011;46848;51.980;5.918;2022-07-21T15:06:33;3.35;;;2.05;;
43519;SDS011;46848;51.980;5.918;2022-07-21T15:08:59;2.55;;;1.60;;
43519;SDS011;46848;51.980;5.918;2022-07-21T15:11:25;2.95;;;1.88;;
43519;SDS011;46848;51.980;5.918;2022-07-21T15:13:51;2.97;;;1.50;;
43519;SDS011;46848;51.980;5.918;2022-07-21T15:16:17;3.75;;;1.50;;
43519;SDS011;46848;51.980;5.918;2022-07-21T15:18:42;5.05;;;2.17;;
43519;SDS011;46848;51.980;5.918;2022-07-21T15:21:08;2.10;;;1.27;;
43519;SDS011;46848;51.980;5.918;2022-07-21T15:23:34;2.75;;;0.90;;
43519;SDS011;46848;51.980;5.918;2022-07-21T15:26:00;2.45;;;1.40;;